createdAt,value
2023-05-05T00:01:33.195Z,14.40
2023-05-05T00:04:00.209Z,14.40
2023-05-05T00:06:28.669Z,14.40
2023-05-05T00:08:56.182Z,14.30
2023-05-05T00:11:23.174Z,14.30
2023-05-05T00:13:53.230Z,14.20
2023-05-05T00:16:20.229Z,14.20
2023-05-05T00:18:47.362Z,14.20
2023-05-05T00:21:14.349Z,14.20
2023-05-05T00:23:41.216Z,14.20
2023-05-05T00:26:08.090Z,14.20
2023-05-05T00:28:35.007Z,14.10
2023-05-05T00:31:02.279Z,14.00
2023-05-05T00:33:29.212Z,13.90
2023-05-05T00:35:56.130Z,13.90
2023-05-05T00:38:23.392Z,13.90
2023-05-05T00:40:50.496Z,13.90
2023-05-05T00:43:17.454Z,13.90
2023-05-05T00:45:47.613Z,13.90
2023-05-05T00:48:15.100Z,13.80
2023-05-05T00:50:44.495Z,13.80
2023-05-05T00:53:11.885Z,13.80
2023-05-05T00:55:38.822Z,13.70
2023-05-05T00:58:05.838Z,13.80
2023-05-05T01:00:37.017Z,13.90
2023-05-05T01:03:05.331Z,13.90
2023-05-05T01:05:44.936Z,13.90
2023-05-05T01:08:26.821Z,13.70
2023-05-05T01:10:58.754Z,13.70
2023-05-05T01:13:36.626Z,13.60
2023-05-05T01:16:20.876Z,13.70
2023-05-05T01:18:59.449Z,13.70
2023-05-05T01:21:32.677Z,13.70
2023-05-05T01:24:05.607Z,13.70
2023-05-05T01:26:51.194Z,13.60
2023-05-05T01:29:30.281Z,13.60
2023-05-05T01:32:07.999Z,13.60
2023-05-05T01:34:40.212Z,13.60
2023-05-05T01:37:41.618Z,13.60
2023-05-05T01:40:12.308Z,13.60
2023-05-05T01:42:43.599Z,13.70
2023-05-05T01:45:14.574Z,13.60
2023-05-05T01:47:43.001Z,13.60
2023-05-05T01:50:11.571Z,13.40
2023-05-05T01:52:40.148Z,13.30
2023-05-05T01:55:08.815Z,13.40
2023-05-05T01:57:37.220Z,13.40
2023-05-05T02:00:04.877Z,13.30
2023-05-05T02:02:33.552Z,13.30
2023-05-05T02:05:02.734Z,13.30
2023-05-05T02:07:33.335Z,13.20
2023-05-05T02:10:02.453Z,13.20
2023-05-05T02:12:31.665Z,13.20
2023-05-05T02:15:01.414Z,13.10
2023-05-05T02:17:30.322Z,13.10
2023-05-05T02:20:01.114Z,13.00
2023-05-05T02:22:28.452Z,12.90
2023-05-05T02:24:55.498Z,12.90
2023-05-05T02:27:24.280Z,12.90
2023-05-05T02:29:56.948Z,13.00
2023-05-05T02:32:40.331Z,13.00
2023-05-05T02:35:20.964Z,13.00
2023-05-05T02:37:56.145Z,12.90
2023-05-05T02:40:26.354Z,12.80
2023-05-05T02:42:54.629Z,12.80
2023-05-05T02:45:23.398Z,12.80
2023-05-05T02:47:52.884Z,12.80
2023-05-05T02:50:19.739Z,13.10
2023-05-05T02:52:46.983Z,13.10
2023-05-05T02:55:14.852Z,13.20
2023-05-05T02:57:48.770Z,13.20
2023-05-05T03:00:47.973Z,13.20
2023-05-05T03:04:06.354Z,13.10
2023-05-05T03:06:40.631Z,13.00
2023-05-05T03:09:15.758Z,12.90
2023-05-05T03:12:16.956Z,12.80
2023-05-05T03:14:45.964Z,12.80
2023-05-05T03:17:14.667Z,12.70
2023-05-05T03:19:44.201Z,12.60
2023-05-05T03:22:11.448Z,12.50
2023-05-05T03:24:38.336Z,12.50
2023-05-05T03:27:05.260Z,12.50
2023-05-05T03:29:32.169Z,12.50
2023-05-05T03:32:01.029Z,12.40
2023-05-05T03:34:28.033Z,12.30
2023-05-05T03:36:54.958Z,12.40
2023-05-05T03:39:21.825Z,12.50
2023-05-05T03:41:48.809Z,12.60
2023-05-05T03:44:15.725Z,12.50
2023-05-05T03:46:42.605Z,12.40
2023-05-05T03:49:09.853Z,12.50
2023-05-05T03:51:39.113Z,12.40
2023-05-05T03:54:06.276Z,12.60
2023-05-05T03:56:33.139Z,12.70
2023-05-05T03:59:00.013Z,12.60
2023-05-05T04:01:29.026Z,12.50
2023-05-05T04:03:56.450Z,12.40
2023-05-05T04:06:23.479Z,12.40
2023-05-05T04:08:50.467Z,12.40
2023-05-05T04:11:17.592Z,12.40
2023-05-05T04:13:44.541Z,12.60
2023-05-05T04:16:11.458Z,12.60
2023-05-05T04:18:38.557Z,12.70
2023-05-05T04:21:05.481Z,12.70
2023-05-05T04:23:32.356Z,12.60
2023-05-05T04:25:59.198Z,12.50
2023-05-05T04:28:26.121Z,12.40
2023-05-05T04:30:53.035Z,12.60
2023-05-05T04:33:20.016Z,12.70
2023-05-05T04:35:46.971Z,12.80
2023-05-05T04:38:13.797Z,12.90
2023-05-05T04:40:43.745Z,12.90
2023-05-05T04:43:10.744Z,12.90
2023-05-05T04:45:37.596Z,13.00
2023-05-05T04:48:05.341Z,13.10
2023-05-05T04:50:32.856Z,13.10
2023-05-05T04:52:59.659Z,13.10
2023-05-05T04:55:26.557Z,13.20
2023-05-05T04:57:53.816Z,13.30
2023-05-05T05:00:21.622Z,13.30
2023-05-05T05:02:48.624Z,13.30
2023-05-05T05:05:15.584Z,13.20
2023-05-05T05:07:42.441Z,13.00
2023-05-05T05:10:09.923Z,13.00
2023-05-05T05:12:37.236Z,13.00
2023-05-05T05:15:05.028Z,12.90
2023-05-05T05:17:31.920Z,12.90
2023-05-05T05:20:01.535Z,12.80
2023-05-05T05:22:28.447Z,12.70
2023-05-05T05:24:55.415Z,12.70
2023-05-05T05:27:22.293Z,12.70
2023-05-05T05:29:50.326Z,12.70
2023-05-05T05:32:17.192Z,12.60
2023-05-05T05:34:44.012Z,12.60
2023-05-05T05:37:11.039Z,12.60
2023-05-05T05:39:37.869Z,12.70
2023-05-05T05:42:04.784Z,12.80
2023-05-05T05:44:32.817Z,12.90
2023-05-05T05:46:59.731Z,12.90
2023-05-05T05:49:26.572Z,13.00
2023-05-05T05:51:53.432Z,13.00
2023-05-05T05:54:20.319Z,13.00
2023-05-05T05:56:47.160Z,13.10
2023-05-05T05:59:13.999Z,13.20
2023-05-05T06:01:41.244Z,13.30
2023-05-05T06:04:08.221Z,13.30
2023-05-05T06:06:35.217Z,13.40
2023-05-05T06:09:02.192Z,13.40
2023-05-05T06:11:29.127Z,13.50
2023-05-05T06:13:56.050Z,13.50
2023-05-05T06:16:23.009Z,13.50
2023-05-05T06:18:49.864Z,13.60
2023-05-05T06:21:16.848Z,13.60
2023-05-05T06:23:43.687Z,13.50
2023-05-05T06:26:10.752Z,13.50
2023-05-05T06:28:37.717Z,13.40
2023-05-05T06:31:04.692Z,13.30
2023-05-05T06:33:31.604Z,13.30
2023-05-05T06:35:58.571Z,13.30
2023-05-05T06:38:25.433Z,13.30
2023-05-05T06:40:52.309Z,13.30
2023-05-05T06:43:19.120Z,13.30
2023-05-05T06:45:46.065Z,13.30
2023-05-05T06:48:12.982Z,13.40
2023-05-05T06:50:39.856Z,13.50
2023-05-05T06:53:06.667Z,13.70
2023-05-05T06:55:33.552Z,13.80
2023-05-05T06:58:00.380Z,13.80
2023-05-05T07:00:27.372Z,13.80
2023-05-05T07:02:54.294Z,13.80
2023-05-05T07:05:21.319Z,13.80
2023-05-05T07:07:56.219Z,13.70
2023-05-05T07:10:24.576Z,13.80
2023-05-05T07:12:52.450Z,13.80
2023-05-05T07:15:27.469Z,13.80
2023-05-05T07:17:55.571Z,13.80
2023-05-05T07:20:22.531Z,13.80
2023-05-05T07:22:51.765Z,13.90
2023-05-05T07:25:18.818Z,14.00
2023-05-05T07:27:45.893Z,14.00
2023-05-05T07:30:16.302Z,14.00
2023-05-05T07:32:44.376Z,14.10
2023-05-05T07:35:11.399Z,14.20
2023-05-05T07:37:38.404Z,14.20
2023-05-05T07:40:06.183Z,14.30
2023-05-05T07:42:33.212Z,14.30
2023-05-05T07:45:00.022Z,14.40
2023-05-05T07:47:27.159Z,14.50
2023-05-05T07:49:54.692Z,14.50
2023-05-05T07:52:30.099Z,14.50
2023-05-05T07:55:04.956Z,14.60
2023-05-05T07:57:31.884Z,14.60
2023-05-05T07:59:58.735Z,14.80
2023-05-05T08:02:25.673Z,14.90
2023-05-05T08:04:52.546Z,14.90
2023-05-05T08:07:19.420Z,15.00
2023-05-05T08:09:46.272Z,15.00
2023-05-05T08:12:15.138Z,15.10
2023-05-05T08:14:42.623Z,15.20
2023-05-05T08:17:09.500Z,15.30
2023-05-05T08:19:39.108Z,15.50
2023-05-05T08:22:06.040Z,15.60
2023-05-05T08:24:32.875Z,15.70
2023-05-05T08:27:00.029Z,15.80
2023-05-05T08:29:26.950Z,16.00
2023-05-05T08:31:53.973Z,16.10
2023-05-05T08:34:21.269Z,16.20
2023-05-05T08:36:49.176Z,16.30
2023-05-05T08:39:18.824Z,16.40
2023-05-05T08:41:45.905Z,16.50
2023-05-05T08:44:12.848Z,16.60
2023-05-05T08:46:41.236Z,16.80
2023-05-05T08:49:13.903Z,17.00
2023-05-05T08:51:44.309Z,17.00
2023-05-05T08:54:17.787Z,17.10
2023-05-05T08:56:47.311Z,17.30
2023-05-05T08:59:15.668Z,17.60
2023-05-05T09:01:42.984Z,17.80
2023-05-05T09:04:10.919Z,18.00
2023-05-05T09:06:38.089Z,18.00
2023-05-05T09:09:05.081Z,18.00
2023-05-05T09:11:34.270Z,18.10
2023-05-05T09:14:01.847Z,18.20
2023-05-05T09:16:28.735Z,18.30
2023-05-05T09:19:13.584Z,18.30
2023-05-05T09:21:48.703Z,18.40
2023-05-05T09:24:15.718Z,18.50
2023-05-05T09:26:44.806Z,18.50
2023-05-05T09:29:22.210Z,18.50
2023-05-05T09:32:08.702Z,18.70
2023-05-05T09:34:36.577Z,18.90
2023-05-05T09:37:03.559Z,19.00
2023-05-05T09:39:30.522Z,19.00
2023-05-05T09:41:58.474Z,19.20
2023-05-05T09:44:39.178Z,19.30
2023-05-05T09:47:14.777Z,19.50
2023-05-05T09:49:58.621Z,19.60
2023-05-05T09:52:25.563Z,19.80
2023-05-05T09:54:57.038Z,19.70
2023-05-05T09:57:32.601Z,19.70
2023-05-05T10:00:01.635Z,19.90
2023-05-05T10:02:33.793Z,20.10
2023-05-05T10:05:19.214Z,20.10
2023-05-05T10:07:47.431Z,20.10
2023-05-05T10:10:16.386Z,20.20
2023-05-05T10:12:43.500Z,20.30
2023-05-05T10:15:12.001Z,20.30
2023-05-05T10:18:06.828Z,20.40
2023-05-05T10:20:41.072Z,20.50
2023-05-05T10:23:10.304Z,20.80
2023-05-05T10:25:40.087Z,21.10
2023-05-05T10:28:09.842Z,21.20
2023-05-05T10:30:46.076Z,21.10
2023-05-05T10:33:31.542Z,21.00
2023-05-05T10:36:02.494Z,20.90
2023-05-05T10:38:36.330Z,21.20
2023-05-05T10:41:03.853Z,21.50
2023-05-05T10:43:32.055Z,21.80
2023-05-05T10:45:59.678Z,22.10
2023-05-05T10:48:42.582Z,22.50
2023-05-05T10:51:39.209Z,22.70
2023-05-05T10:54:14.046Z,22.90
2023-05-05T10:56:42.131Z,22.20
2023-05-05T10:59:37.001Z,21.90
2023-05-05T11:02:23.586Z,21.70
2023-05-05T11:05:09.965Z,21.90
2023-05-05T11:07:37.882Z,22.20
2023-05-05T11:10:09.286Z,22.40
2023-05-05T11:12:59.274Z,22.60
2023-05-05T11:15:29.365Z,22.60
2023-05-05T11:18:06.692Z,22.40
2023-05-05T11:20:40.178Z,22.40
2023-05-05T11:23:07.149Z,22.10
2023-05-05T11:25:37.399Z,22.20
2023-05-05T11:28:23.161Z,22.30
2023-05-05T11:30:59.396Z,22.50
2023-05-05T11:33:28.934Z,22.60
2023-05-05T11:36:08.749Z,22.30
2023-05-05T11:38:53.445Z,22.20
2023-05-05T11:41:34.015Z,22.00
2023-05-05T11:44:14.185Z,21.70
2023-05-05T11:47:01.962Z,21.50
2023-05-05T11:49:30.485Z,21.40
2023-05-05T11:51:58.295Z,21.20
2023-05-05T11:54:26.146Z,21.00
2023-05-05T11:57:05.467Z,21.00
2023-05-05T11:59:33.669Z,20.70
2023-05-05T12:02:00.924Z,20.60
2023-05-05T12:04:27.827Z,20.50
2023-05-05T12:06:55.498Z,20.30
2023-05-05T12:09:23.818Z,20.20
2023-05-05T12:11:50.788Z,20.10
2023-05-05T12:14:17.678Z,19.90
2023-05-05T12:17:01.462Z,19.80
2023-05-05T12:19:32.869Z,19.70
2023-05-05T12:22:06.455Z,19.60
2023-05-05T12:24:33.406Z,19.50
2023-05-05T12:27:11.017Z,19.40
2023-05-05T12:29:38.189Z,19.30
2023-05-05T12:32:05.590Z,19.10
2023-05-05T12:34:32.936Z,18.90
2023-05-05T12:37:01.109Z,18.70
2023-05-05T12:39:37.318Z,18.40
2023-05-05T12:42:04.726Z,18.30
2023-05-05T12:44:38.571Z,18.30
2023-05-05T12:47:05.616Z,18.40
2023-05-05T12:49:34.210Z,18.50
2023-05-05T12:52:01.150Z,18.60
2023-05-05T12:54:29.828Z,18.80
2023-05-05T12:56:59.784Z,19.00
2023-05-05T12:59:27.477Z,19.30
2023-05-05T13:01:56.232Z,19.60
2023-05-05T13:04:25.679Z,19.70
2023-05-05T13:07:12.255Z,19.60
2023-05-05T13:09:39.479Z,19.40
2023-05-05T13:12:13.489Z,18.80
2023-05-05T13:14:40.980Z,18.00
2023-05-05T13:17:08.092Z,17.20
2023-05-05T13:19:35.899Z,16.90
2023-05-05T13:22:03.215Z,16.40
2023-05-05T13:24:46.685Z,16.10
2023-05-05T13:27:17.110Z,15.80
2023-05-05T13:29:44.085Z,15.50
2023-05-05T13:32:11.005Z,15.50
2023-05-05T13:34:39.261Z,15.40
2023-05-05T13:37:06.602Z,15.40
2023-05-05T13:39:33.641Z,15.40
2023-05-05T13:42:00.533Z,15.20
2023-05-05T13:44:27.371Z,15.20
2023-05-05T13:46:54.509Z,15.10
2023-05-05T13:49:21.414Z,15.10
2023-05-05T13:51:48.281Z,15.10
2023-05-05T13:54:15.187Z,14.80
2023-05-05T13:56:42.184Z,14.60
2023-05-05T13:59:09.246Z,14.50
2023-05-05T14:01:36.267Z,14.10
2023-05-05T14:04:05.400Z,13.90
2023-05-05T14:06:33.575Z,13.70
2023-05-05T14:09:00.660Z,13.60
2023-05-05T14:11:27.589Z,13.50
2023-05-05T14:13:54.510Z,13.40
2023-05-05T14:16:21.493Z,13.20
2023-05-05T14:18:48.431Z,13.10
2023-05-05T14:21:15.351Z,13.00
2023-05-05T14:23:42.240Z,12.90
2023-05-05T14:26:09.305Z,12.80
2023-05-05T14:28:39.319Z,12.60
2023-05-05T14:31:06.484Z,12.50
2023-05-05T14:33:33.491Z,12.50
2023-05-05T14:36:00.468Z,12.50
2023-05-05T14:38:27.479Z,12.50
2023-05-05T14:40:54.485Z,12.50
2023-05-05T14:43:21.894Z,12.40
2023-05-05T14:45:48.882Z,12.40
2023-05-05T14:48:15.898Z,12.40
2023-05-05T14:50:42.812Z,12.50
2023-05-05T14:53:09.696Z,12.40
2023-05-05T14:55:39.504Z,12.40
2023-05-05T14:58:06.352Z,12.70
2023-05-05T15:00:36.986Z,12.40
2023-05-05T15:03:32.180Z,12.30
2023-05-05T15:06:09.121Z,12.40
2023-05-05T15:08:35.932Z,12.50
2023-05-05T15:11:02.895Z,12.70
2023-05-05T15:13:30.211Z,12.70
2023-05-05T15:15:57.246Z,12.80
2023-05-05T15:18:24.198Z,13.00
2023-05-05T15:20:51.154Z,13.10
2023-05-05T15:23:18.090Z,13.20
2023-05-05T15:25:45.484Z,13.30
2023-05-05T15:28:12.495Z,13.40
2023-05-05T15:30:39.826Z,13.40
2023-05-05T15:33:06.682Z,13.30
2023-05-05T15:35:33.806Z,13.40
2023-05-05T15:38:00.707Z,13.30
2023-05-05T15:40:27.579Z,13.30
2023-05-05T15:42:54.464Z,13.50
2023-05-05T15:45:21.346Z,13.50
2023-05-05T15:47:48.290Z,13.70
2023-05-05T15:50:15.538Z,13.80
2023-05-05T15:52:42.771Z,13.90
2023-05-05T15:55:10.616Z,14.00
2023-05-05T15:57:39.820Z,14.20
2023-05-05T16:00:08.079Z,14.30
2023-05-05T16:02:34.974Z,14.50
2023-05-05T16:05:02.198Z,14.70
2023-05-05T16:07:29.096Z,14.90
2023-05-05T16:09:56.948Z,15.20
2023-05-05T16:12:25.517Z,15.60
2023-05-05T16:14:53.225Z,16.50
2023-05-05T16:17:21.630Z,17.90
2023-05-05T16:19:49.392Z,19.20
2023-05-05T16:22:16.278Z,20.60
2023-05-05T16:24:44.306Z,22.00
2023-05-05T16:27:11.520Z,22.90
2023-05-05T16:29:38.519Z,23.80
2023-05-05T16:32:06.143Z,24.10
2023-05-05T16:34:33.066Z,23.40
2023-05-05T16:36:59.991Z,22.50
2023-05-05T16:39:26.868Z,22.00
2023-05-05T16:41:53.755Z,22.20
2023-05-05T16:44:20.757Z,23.20
2023-05-05T16:46:47.620Z,24.00
2023-05-05T16:49:14.637Z,24.20
2023-05-05T16:51:41.606Z,24.00
2023-05-05T16:54:08.437Z,23.70
2023-05-05T16:56:35.344Z,24.00
2023-05-05T16:59:02.331Z,24.20
2023-05-05T17:01:29.361Z,24.60
2023-05-05T17:04:01.804Z,24.90
2023-05-05T17:06:34.847Z,24.90
2023-05-05T17:09:01.920Z,24.60
2023-05-05T17:11:28.851Z,24.60
2023-05-05T17:13:56.166Z,24.40
2023-05-05T17:16:23.037Z,24.30
2023-05-05T17:18:49.996Z,24.20
2023-05-05T17:21:16.872Z,24.30
2023-05-05T17:23:43.758Z,24.30
2023-05-05T17:26:12.154Z,24.20
2023-05-05T17:28:39.128Z,23.90
2023-05-05T17:31:06.083Z,23.70
2023-05-05T17:33:32.935Z,23.70
2023-05-05T17:35:59.782Z,23.70
2023-05-05T17:38:26.697Z,23.60
2023-05-05T17:40:53.604Z,23.40
2023-05-05T17:43:20.549Z,23.00
2023-05-05T17:45:47.553Z,22.50
2023-05-05T17:48:14.480Z,22.00
2023-05-05T17:50:43.205Z,21.60
2023-05-05T17:53:10.756Z,21.00
2023-05-05T17:55:37.723Z,21.00
2023-05-05T17:58:04.631Z,20.80
2023-05-05T18:00:31.555Z,20.60
2023-05-05T18:02:58.501Z,20.10
2023-05-05T18:05:25.598Z,19.10
2023-05-05T18:07:52.523Z,18.30
2023-05-05T18:10:19.446Z,17.80
2023-05-05T18:12:46.320Z,17.40
2023-05-05T18:15:13.369Z,17.10
2023-05-05T18:17:40.506Z,17.00
2023-05-05T18:20:08.127Z,16.90
2023-05-05T18:22:35.059Z,17.00
2023-05-05T18:25:01.963Z,17.10
2023-05-05T18:27:29.085Z,17.30
2023-05-05T18:29:55.945Z,17.50
2023-05-05T18:32:23.893Z,17.50
2023-05-05T18:34:50.910Z,17.50
2023-05-05T18:37:17.797Z,17.50
2023-05-05T18:39:45.162Z,17.50
2023-05-05T18:42:13.121Z,17.50
2023-05-05T18:44:40.266Z,17.40
2023-05-05T18:47:07.518Z,17.20
2023-05-05T18:49:35.133Z,17.00
2023-05-05T18:52:04.800Z,16.90
2023-05-05T18:54:31.694Z,16.60
2023-05-05T18:56:59.287Z,16.60
2023-05-05T18:59:26.336Z,16.60
2023-05-05T19:01:53.267Z,16.60
2023-05-05T19:04:30.638Z,16.60
2023-05-05T19:06:58.837Z,16.50
2023-05-05T19:09:25.922Z,16.40
2023-05-05T19:11:52.862Z,16.30
2023-05-05T19:14:19.754Z,16.20
2023-05-05T19:16:46.812Z,16.10
2023-05-05T19:19:13.799Z,16.10
2023-05-05T19:21:40.797Z,16.00
2023-05-05T19:24:10.785Z,15.80
2023-05-05T19:26:37.844Z,15.60
2023-05-05T19:29:04.774Z,15.40
2023-05-05T19:31:31.941Z,15.40
2023-05-05T19:34:01.651Z,15.40
2023-05-05T19:36:30.066Z,15.40
2023-05-05T19:38:57.081Z,15.40
2023-05-05T19:41:24.006Z,15.50
2023-05-05T19:43:50.957Z,15.40
2023-05-05T19:46:19.207Z,15.50
2023-05-05T19:48:46.293Z,15.40
2023-05-05T19:51:14.461Z,15.40
2023-05-05T19:53:42.916Z,15.30
2023-05-05T19:56:10.313Z,15.30
2023-05-05T19:58:58.907Z,15.30
2023-05-05T20:01:27.013Z,15.30
2023-05-05T20:03:56.139Z,15.30
2023-05-05T20:06:23.440Z,15.20
2023-05-05T20:08:54.738Z,15.10
2023-05-05T20:11:22.158Z,15.10
2023-05-05T20:13:50.850Z,15.00
2023-05-05T20:16:18.165Z,14.80
2023-05-05T20:18:45.237Z,14.50
2023-05-05T20:21:12.178Z,14.30
2023-05-05T20:23:39.053Z,14.20
2023-05-05T20:26:06.366Z,14.20
2023-05-05T20:28:33.296Z,14.20
2023-05-05T20:31:03.104Z,14.20
2023-05-05T20:33:30.050Z,13.90
2023-05-05T20:35:56.998Z,13.60
2023-05-05T20:38:24.001Z,13.40
2023-05-05T20:40:52.315Z,13.30
2023-05-05T20:43:19.660Z,13.30
2023-05-05T20:45:46.603Z,13.40
2023-05-05T20:48:13.488Z,13.50
2023-05-05T20:50:41.579Z,13.60
2023-05-05T20:53:09.708Z,13.60
2023-05-05T20:55:36.893Z,13.60
2023-05-05T20:58:05.213Z,13.80
2023-05-05T21:00:32.254Z,13.80
2023-05-05T21:02:59.552Z,13.70
2023-05-05T21:05:26.806Z,13.60
2023-05-05T21:07:54.336Z,13.60
2023-05-05T21:10:21.381Z,13.60
2023-05-05T21:12:48.273Z,13.60
2023-05-05T21:15:16.684Z,13.70
2023-05-05T21:17:43.685Z,13.70
2023-05-05T21:20:11.252Z,13.70
2023-05-05T21:22:38.418Z,13.60
2023-05-05T21:25:12.939Z,13.50
2023-05-05T21:27:39.872Z,13.50
2023-05-05T21:30:09.405Z,13.40
2023-05-05T21:32:39.849Z,13.30
2023-05-05T21:35:08.171Z,13.40
2023-05-05T21:37:39.359Z,13.40
2023-05-05T21:40:10.803Z,13.40
2023-05-05T21:42:39.757Z,13.40
2023-05-05T21:45:07.144Z,13.40
2023-05-05T21:47:36.072Z,13.40
2023-05-05T21:50:04.129Z,13.50
2023-05-05T21:52:31.146Z,13.50
2023-05-05T21:54:58.048Z,13.60
2023-05-05T21:57:24.989Z,13.60
2023-05-05T21:59:51.952Z,13.70
2023-05-05T22:02:18.860Z,13.70
2023-05-05T22:04:48.753Z,13.70
2023-05-05T22:07:15.823Z,13.80
2023-05-05T22:09:43.357Z,13.80
2023-05-05T22:12:10.305Z,13.80
2023-05-05T22:14:37.254Z,13.80
2023-05-05T22:17:04.261Z,13.80
2023-05-05T22:19:31.122Z,13.80
2023-05-05T22:21:58.907Z,13.80
2023-05-05T22:24:25.858Z,13.70
2023-05-05T22:26:53.690Z,13.70
2023-05-05T22:29:20.665Z,13.50
2023-05-05T22:31:47.641Z,13.40
2023-05-05T22:34:15.102Z,13.30
2023-05-05T22:36:42.248Z,13.20
2023-05-05T22:39:09.186Z,13.20
2023-05-05T22:41:36.282Z,13.00
2023-05-05T22:44:03.158Z,12.80
2023-05-05T22:46:30.397Z,12.80
2023-05-05T22:48:57.344Z,12.90
2023-05-05T22:51:24.155Z,13.00
2023-05-05T22:53:51.157Z,13.10
2023-05-05T22:56:18.071Z,13.10
2023-05-05T22:58:46.550Z,13.20
2023-05-05T23:01:13.539Z,13.30
2023-05-05T23:03:40.481Z,13.40
2023-05-05T23:06:07.658Z,13.40
2023-05-05T23:08:34.570Z,13.50
2023-05-05T23:11:01.416Z,13.50
2023-05-05T23:13:28.285Z,13.60
2023-05-05T23:15:55.327Z,13.60
2023-05-05T23:18:22.188Z,13.60
2023-05-05T23:20:49.083Z,13.70
2023-05-05T23:23:16.013Z,13.70
2023-05-05T23:25:42.919Z,13.70
2023-05-05T23:28:10.081Z,13.70
2023-05-05T23:30:40.865Z,13.60
2023-05-05T23:33:07.866Z,13.60
2023-05-05T23:35:34.779Z,13.50
2023-05-05T23:38:01.793Z,13.50
2023-05-05T23:40:28.642Z,13.40
2023-05-05T23:42:55.573Z,13.30
2023-05-05T23:45:22.461Z,13.20
2023-05-05T23:47:51.757Z,13.20
2023-05-05T23:50:18.607Z,13.10
2023-05-05T23:52:45.730Z,13.10
2023-05-05T23:55:12.673Z,13.00
2023-05-05T23:57:39.528Z,12.90
